createdAt,value
2023-02-23T00:01:54.344Z,8.77
2023-02-23T00:04:23.555Z,8.49
2023-02-23T00:06:54.291Z,8.69
2023-02-23T00:09:25.714Z,8.73
2023-02-23T00:11:56.540Z,8.57
2023-02-23T00:14:28.794Z,8.78
2023-02-23T00:17:00.785Z,8.58
2023-02-23T00:19:27.633Z,8.64
2023-02-23T00:21:54.386Z,8.66
2023-02-23T00:24:21.589Z,8.66
2023-02-23T00:26:51.832Z,8.55
2023-02-23T00:29:21.213Z,8.66
2023-02-23T00:31:51.479Z,8.65
2023-02-23T00:34:21.866Z,8.65
2023-02-23T00:36:55.299Z,8.66
2023-02-23T00:39:29.520Z,8.09
2023-02-23T00:42:03.318Z,8.08
2023-02-23T00:44:32.697Z,8.57
2023-02-23T00:47:00.467Z,8.55
2023-02-23T00:49:27.520Z,8.59
2023-02-23T00:51:54.767Z,8.59
2023-02-23T00:54:22.304Z,8.49
2023-02-23T00:56:51.594Z,8.43
2023-02-23T00:59:19.372Z,8.34
2023-02-23T01:01:46.956Z,8.37
2023-02-23T01:04:14.730Z,8.37
2023-02-23T01:06:42.633Z,8.20
2023-02-23T01:09:14.760Z,8.26
2023-02-23T01:11:44.874Z,8.41
2023-02-23T01:14:11.588Z,8.20
2023-02-23T01:16:41.007Z,8.44
2023-02-23T01:19:07.912Z,8.18
2023-02-23T01:21:42.061Z,8.32
2023-02-23T01:24:12.367Z,8.45
2023-02-23T01:26:43.258Z,8.47
2023-02-23T01:29:16.354Z,8.44
2023-02-23T01:31:46.458Z,8.43
2023-02-23T01:34:18.893Z,8.40
2023-02-23T01:36:45.750Z,8.40
2023-02-23T01:39:16.041Z,8.36
2023-02-23T01:41:43.468Z,8.25
2023-02-23T01:44:20.235Z,8.41
2023-02-23T01:46:47.551Z,8.20
2023-02-23T01:49:29.690Z,8.34
2023-02-23T01:52:11.592Z,8.43
2023-02-23T01:54:53.805Z,8.40
2023-02-23T01:57:24.841Z,8.36
2023-02-23T01:59:53.950Z,8.29
2023-02-23T02:02:32.798Z,8.44
2023-02-23T02:05:00.688Z,8.38
2023-02-23T02:07:30.927Z,8.39
2023-02-23T02:10:11.758Z,8.06
2023-02-23T02:12:44.603Z,8.40
2023-02-23T02:15:18.828Z,8.34
2023-02-23T02:18:09.389Z,8.46
2023-02-23T02:21:11.914Z,8.39
2023-02-23T02:24:00.836Z,8.39
2023-02-23T02:27:14.662Z,8.40
2023-02-23T02:30:13.504Z,8.42
2023-02-23T02:33:06.318Z,8.40
2023-02-23T02:36:03.953Z,8.42
2023-02-23T02:38:54.941Z,8.39
2023-02-23T02:41:38.099Z,8.25
2023-02-23T02:44:15.554Z,8.33
2023-02-23T02:46:51.494Z,8.21
2023-02-23T02:49:30.697Z,8.25
2023-02-23T02:52:14.676Z,8.27
2023-02-23T02:54:48.088Z,8.03
2023-02-23T02:57:16.088Z,8.19
2023-02-23T03:00:07.367Z,8.07
2023-02-23T03:02:56.005Z,7.80
2023-02-23T03:06:06.954Z,8.07
2023-02-23T03:09:03.660Z,7.93
2023-02-23T03:11:59.343Z,7.97
2023-02-23T03:15:22.658Z,7.97
2023-02-23T03:18:31.688Z,7.93
2023-02-23T03:21:27.064Z,8.03
2023-02-23T03:24:29.734Z,8.05
2023-02-23T03:27:31.690Z,7.95
2023-02-23T03:30:25.256Z,7.82
2023-02-23T03:33:19.106Z,8.00
2023-02-23T03:36:17.725Z,8.10
2023-02-23T03:39:19.512Z,7.93
2023-02-23T03:42:09.059Z,8.09
2023-02-23T03:45:01.542Z,8.19
2023-02-23T03:47:52.534Z,8.19
2023-02-23T03:50:53.870Z,8.12
2023-02-23T03:53:50.213Z,8.22
2023-02-23T03:56:39.779Z,8.23
2023-02-23T03:59:26.642Z,8.23
2023-02-23T04:02:14.965Z,8.02
2023-02-23T04:05:04.032Z,8.21
2023-02-23T04:07:50.650Z,8.17
2023-02-23T04:10:35.870Z,8.13
2023-02-23T04:13:17.008Z,8.22
2023-02-23T04:15:57.245Z,8.26
2023-02-23T04:18:27.620Z,8.24
2023-02-23T04:20:56.073Z,8.32
2023-02-23T04:23:24.171Z,8.06
2023-02-23T04:25:52.385Z,8.33
2023-02-23T04:28:21.191Z,8.18
2023-02-23T04:30:47.960Z,8.17
2023-02-23T04:33:14.802Z,8.19
2023-02-23T04:35:41.999Z,8.21
2023-02-23T04:38:10.339Z,8.19
2023-02-23T04:40:37.308Z,8.17
2023-02-23T04:43:04.157Z,8.13
2023-02-23T04:45:30.837Z,8.19
2023-02-23T04:47:58.704Z,8.27
2023-02-23T04:50:27.359Z,8.16
2023-02-23T04:52:56.555Z,8.30
2023-02-23T04:55:26.049Z,8.29
2023-02-23T04:57:58.201Z,8.29
2023-02-23T05:00:25.534Z,8.28
2023-02-23T05:02:53.958Z,8.09
2023-02-23T05:05:23.334Z,8.15
2023-02-23T05:07:55.552Z,7.93
2023-02-23T05:10:23.224Z,8.27
2023-02-23T05:12:51.613Z,8.01
2023-02-23T05:15:19.895Z,7.93
2023-02-23T05:17:48.188Z,8.30
2023-02-23T05:20:18.639Z,8.26
2023-02-23T05:22:45.501Z,8.15
2023-02-23T05:25:19.874Z,8.23
2023-02-23T05:27:48.778Z,8.00
2023-02-23T05:30:15.635Z,7.90
2023-02-23T05:32:44.619Z,7.96
2023-02-23T05:35:13.212Z,8.13
2023-02-23T05:37:41.345Z,8.07
2023-02-23T05:40:12.083Z,8.21
2023-02-23T05:42:39.086Z,8.18
2023-02-23T05:45:07.663Z,8.21
2023-02-23T05:47:39.978Z,8.69
2023-02-23T05:50:10.199Z,9.06
2023-02-23T05:52:43.926Z,9.36
2023-02-23T05:55:11.819Z,9.47
2023-02-23T05:57:39.949Z,9.68
2023-02-23T06:00:08.218Z,9.77
2023-02-23T06:02:36.639Z,9.31
2023-02-23T06:05:04.349Z,9.88
2023-02-23T06:07:33.249Z,9.61
2023-02-23T06:10:07.185Z,9.17
2023-02-23T06:12:36.450Z,9.19
2023-02-23T06:15:06.445Z,8.54
2023-02-23T06:17:33.886Z,8.82
2023-02-23T06:20:02.103Z,8.52
2023-02-23T06:22:31.074Z,8.68
2023-02-23T06:24:58.765Z,8.63
2023-02-23T06:27:26.673Z,8.51
2023-02-23T06:29:53.771Z,8.35
2023-02-23T06:32:21.798Z,8.16
2023-02-23T06:34:50.568Z,8.12
2023-02-23T06:37:18.018Z,7.90
2023-02-23T06:39:45.259Z,8.04
2023-02-23T06:42:11.893Z,7.85
2023-02-23T06:44:40.117Z,8.04
2023-02-23T06:47:08.970Z,7.88
2023-02-23T06:49:35.716Z,7.97
2023-02-23T06:52:02.454Z,7.89
2023-02-23T06:54:31.351Z,7.86
2023-02-23T06:56:59.446Z,7.52
2023-02-23T06:59:27.666Z,7.90
2023-02-23T07:01:58.464Z,7.82
2023-02-23T07:04:34.969Z,7.32
2023-02-23T07:07:02.061Z,7.39
2023-02-23T07:09:30.742Z,7.80
2023-02-23T07:11:57.777Z,7.57
2023-02-23T07:14:26.893Z,7.68
2023-02-23T07:16:54.902Z,7.52
2023-02-23T07:19:21.981Z,7.53
2023-02-23T07:21:51.967Z,7.80
2023-02-23T07:24:18.824Z,7.67
2023-02-23T07:26:47.850Z,7.47
2023-02-23T07:29:16.131Z,7.62
2023-02-23T07:31:43.241Z,7.45
2023-02-23T07:34:10.556Z,7.32
2023-02-23T07:36:40.041Z,7.26
2023-02-23T07:39:08.914Z,7.59
2023-02-23T07:41:37.871Z,7.70
2023-02-23T07:44:08.151Z,7.50
2023-02-23T07:46:35.139Z,7.53
2023-02-23T07:49:03.035Z,7.83
2023-02-23T07:51:29.821Z,7.66
2023-02-23T07:53:57.375Z,7.90
2023-02-23T07:56:24.627Z,7.69
2023-02-23T07:58:51.862Z,7.85
2023-02-23T08:01:19.468Z,7.78
2023-02-23T08:03:51.337Z,8.05
2023-02-23T08:06:19.320Z,8.00
2023-02-23T08:08:49.092Z,8.09
2023-02-23T08:11:17.527Z,8.11
2023-02-23T08:13:44.587Z,8.10
2023-02-23T08:16:13.346Z,7.93
2023-02-23T08:18:40.183Z,8.12
2023-02-23T08:21:08.315Z,7.77
2023-02-23T08:23:42.698Z,8.22
2023-02-23T08:26:09.801Z,8.05
2023-02-23T08:28:37.717Z,7.80
2023-02-23T08:31:10.565Z,8.17
2023-02-23T08:33:38.812Z,8.17
2023-02-23T08:36:08.595Z,8.05
2023-02-23T08:38:39.734Z,8.10
2023-02-23T08:41:09.379Z,8.38
2023-02-23T08:43:37.047Z,8.40
2023-02-23T08:46:04.625Z,8.26
2023-02-23T08:48:31.693Z,8.12
2023-02-23T08:51:00.846Z,8.57
2023-02-23T08:53:31.011Z,8.60
2023-02-23T08:56:03.220Z,8.62
2023-02-23T08:58:32.230Z,8.62
2023-02-23T09:01:01.427Z,8.57
2023-02-23T09:03:30.849Z,8.69
2023-02-23T09:06:04.888Z,8.71
2023-02-23T09:08:33.001Z,8.73
2023-02-23T09:11:00.005Z,8.82
2023-02-23T09:13:28.470Z,8.62
2023-02-23T09:15:57.968Z,8.80
2023-02-23T09:18:31.161Z,8.65
2023-02-23T09:20:59.021Z,8.52
2023-02-23T09:23:29.692Z,8.86
2023-02-23T09:25:56.954Z,8.71
2023-02-23T09:28:23.584Z,8.64
2023-02-23T09:30:51.215Z,8.86
2023-02-23T09:33:18.991Z,8.92
2023-02-23T09:35:48.310Z,8.61
2023-02-23T09:38:16.001Z,8.85
2023-02-23T09:40:56.450Z,8.97
2023-02-23T09:43:32.446Z,8.85
2023-02-23T09:46:22.291Z,8.66
2023-02-23T09:48:49.851Z,8.75
2023-02-23T09:51:21.110Z,9.02
2023-02-23T09:54:00.935Z,8.97
2023-02-23T09:56:39.010Z,9.16
2023-02-23T09:59:10.159Z,9.18
2023-02-23T10:02:17.543Z,9.18
2023-02-23T10:04:57.729Z,9.16
2023-02-23T10:07:34.848Z,9.19
2023-02-23T10:10:10.901Z,9.13
2023-02-23T10:13:09.707Z,9.23
2023-02-23T10:15:49.909Z,9.05
2023-02-23T10:18:22.129Z,9.25
2023-02-23T10:21:38.266Z,9.25
2023-02-23T10:24:23.578Z,9.27
2023-02-23T10:27:21.794Z,9.33
2023-02-23T10:29:51.580Z,9.29
2023-02-23T10:33:05.169Z,9.31
2023-02-23T10:35:32.440Z,9.29
2023-02-23T10:38:02.256Z,9.41
2023-02-23T10:40:33.401Z,9.40
2023-02-23T10:43:01.871Z,9.31
2023-02-23T10:45:30.899Z,9.60
2023-02-23T10:48:08.853Z,9.67
2023-02-23T10:50:41.300Z,9.79
2023-02-23T10:53:26.852Z,9.79
2023-02-23T10:56:13.819Z,9.90
2023-02-23T10:58:46.819Z,9.93
2023-02-23T11:01:17.334Z,9.84
2023-02-23T11:03:57.566Z,10.04
2023-02-23T11:06:31.417Z,10.00
2023-02-23T11:09:01.506Z,10.10
2023-02-23T11:11:29.705Z,10.14
2023-02-23T11:14:02.213Z,9.95
2023-02-23T11:16:32.497Z,10.31
2023-02-23T11:19:02.278Z,10.16
2023-02-23T11:21:35.692Z,10.22
2023-02-23T11:24:20.379Z,10.45
2023-02-23T11:26:52.818Z,10.25
2023-02-23T11:32:45.569Z,9.83
2023-02-23T11:35:21.264Z,10.49
2023-02-23T11:37:52.206Z,10.40
2023-02-23T11:40:32.156Z,10.69
2023-02-23T11:43:15.087Z,10.50
2023-02-23T11:45:54.267Z,10.72
2023-02-23T11:48:44.105Z,10.76
2023-02-23T11:51:22.392Z,10.49
2023-02-23T11:53:55.700Z,10.85
2023-02-23T11:56:25.974Z,10.68
2023-02-23T11:58:58.808Z,10.69
2023-02-23T12:01:44.541Z,11.04
2023-02-23T12:04:37.787Z,10.91
2023-02-23T12:07:34.643Z,11.16
2023-02-23T12:10:26.606Z,11.10
2023-02-23T12:13:02.092Z,11.09
2023-02-23T12:15:39.056Z,11.27
2023-02-23T12:18:19.108Z,10.99
2023-02-23T12:20:50.836Z,10.86
2023-02-23T12:23:26.417Z,11.25
2023-02-23T12:26:04.987Z,11.29
2023-02-23T12:28:53.026Z,11.26
2023-02-23T12:31:47.624Z,11.38
2023-02-23T12:34:38.798Z,11.44
2023-02-23T12:37:29.857Z,11.44
2023-02-23T12:40:22.270Z,11.45
2023-02-23T12:43:04.690Z,11.36
2023-02-23T13:00:00.930Z,11.48
2023-02-23T13:04:47.283Z,11.52
2023-02-23T13:06:30.673Z,11.54
2023-02-23T13:09:04.742Z,11.54
2023-02-23T13:11:53.912Z,11.42
2023-02-23T13:14:34.739Z,11.39
2023-02-23T13:17:17.913Z,11.35
2023-02-23T13:19:59.199Z,11.43
2023-02-23T13:22:38.043Z,11.30
2023-02-23T13:25:49.783Z,11.20
2023-02-23T13:28:28.527Z,11.35
2023-02-23T13:30:56.675Z,11.28
2023-02-23T13:33:43.552Z,11.27
2023-02-23T13:36:13.200Z,11.29
2023-02-23T13:39:18.686Z,11.37
2023-02-23T13:42:10.160Z,11.48
2023-02-23T13:44:45.085Z,10.96
2023-02-23T13:47:35.490Z,10.83
2023-02-23T13:50:18.512Z,10.88
2023-02-23T13:52:48.442Z,10.82
2023-02-23T13:55:50.016Z,11.07
2023-02-23T13:58:23.976Z,11.18
2023-02-23T14:01:03.365Z,10.86
2023-02-23T14:03:44.327Z,11.04
2023-02-23T14:06:15.028Z,11.36
2023-02-23T14:08:45.373Z,11.33
2023-02-23T14:11:30.211Z,11.54
2023-02-23T14:14:05.270Z,11.54
2023-02-23T14:16:32.106Z,11.60
2023-02-23T14:19:06.937Z,11.47
2023-02-23T14:21:42.815Z,11.47
2023-02-23T14:24:24.151Z,11.51
2023-02-23T14:27:34.233Z,11.50
2023-02-23T14:30:19.721Z,11.33
2023-02-23T14:32:50.247Z,11.34
2023-02-23T14:35:32.423Z,11.43
2023-02-23T14:38:09.416Z,11.39
2023-02-23T14:40:42.257Z,11.39
2023-02-23T14:43:43.447Z,11.51
2023-02-23T14:46:22.887Z,11.12
2023-02-23T14:48:59.816Z,11.28
2023-02-23T14:51:42.519Z,11.41
2023-02-23T14:54:36.215Z,11.51
2023-02-23T14:57:12.065Z,11.33
2023-02-23T14:59:41.157Z,11.15
2023-02-23T15:02:20.587Z,11.36
2023-02-23T15:04:47.861Z,11.41
2023-02-23T15:07:24.108Z,11.27
2023-02-23T15:09:55.654Z,11.24
2023-02-23T15:12:29.337Z,11.45
2023-02-23T15:15:01.880Z,11.44
2023-02-23T15:17:32.094Z,11.27
2023-02-23T15:20:15.821Z,11.39
2023-02-23T15:22:50.165Z,11.40
2023-02-23T15:25:21.524Z,11.30
2023-02-23T15:27:48.978Z,11.27
2023-02-23T15:30:27.169Z,11.02
2023-02-23T15:33:05.833Z,11.25
2023-02-23T15:35:47.728Z,11.12
2023-02-23T15:38:41.765Z,11.24
2023-02-23T15:41:20.254Z,11.13
2023-02-23T15:43:47.054Z,11.10
2023-02-23T15:46:24.824Z,11.15
2023-02-23T15:48:54.131Z,11.21
2023-02-23T15:51:36.339Z,11.16
2023-02-23T15:54:14.157Z,10.65
2023-02-23T15:56:41.124Z,10.63
2023-02-23T15:59:25.721Z,10.45
2023-02-23T16:01:54.734Z,10.07
2023-02-23T16:04:28.863Z,10.17
2023-02-23T16:07:09.018Z,9.99
2023-02-23T16:09:38.999Z,9.59
2023-02-23T16:12:13.416Z,9.51
2023-02-23T16:14:59.409Z,9.72
2023-02-23T16:17:46.860Z,9.60
2023-02-23T16:20:42.422Z,9.35
2023-02-23T16:23:34.092Z,9.40
2023-02-23T16:26:31.787Z,9.35
2023-02-23T16:29:02.974Z,9.26
2023-02-23T16:31:43.815Z,9.28
2023-02-23T16:34:35.182Z,9.20
2023-02-23T16:37:15.857Z,9.10
2023-02-23T16:39:42.757Z,9.15
2023-02-23T16:42:20.668Z,9.28
2023-02-23T16:44:49.283Z,8.79
2023-02-23T16:47:31.926Z,9.19
2023-02-23T16:50:04.878Z,9.17
2023-02-23T16:52:37.305Z,9.21
2023-02-23T16:55:05.011Z,9.16
2023-02-23T16:57:39.271Z,9.15
2023-02-23T17:00:14.773Z,9.03
2023-02-23T17:02:49.843Z,9.16
2023-02-23T17:05:21.990Z,9.22
2023-02-23T17:07:49.625Z,8.88
2023-02-23T17:10:26.614Z,8.97
2023-02-23T17:13:05.176Z,9.16
2023-02-23T17:15:42.354Z,9.15
2023-02-23T17:18:09.141Z,8.74
2023-02-23T17:20:36.116Z,8.77
2023-02-23T17:23:03.629Z,8.92
2023-02-23T17:25:30.631Z,9.21
2023-02-23T17:27:59.189Z,8.85
2023-02-23T17:30:27.070Z,9.42
2023-02-23T17:33:07.122Z,9.41
2023-02-23T17:39:28.371Z,8.94
2023-02-23T17:42:02.430Z,8.29
2023-02-23T17:44:31.811Z,8.67
2023-02-23T17:46:58.467Z,9.21
2023-02-23T17:49:25.969Z,9.23
2023-02-23T17:51:52.477Z,8.74
2023-02-23T17:54:19.102Z,8.97
2023-02-23T17:56:47.110Z,9.03
2023-02-23T17:59:13.713Z,9.11
2023-02-23T18:01:41.442Z,9.13
2023-02-23T18:04:08.446Z,8.72
2023-02-23T18:06:35.169Z,8.61
2023-02-23T18:09:05.988Z,8.83
2023-02-23T18:11:37.705Z,9.25
2023-02-23T18:14:04.716Z,9.02
2023-02-23T18:16:34.918Z,9.18
2023-02-23T18:19:01.521Z,9.07
2023-02-23T18:21:29.638Z,9.17
2023-02-23T18:23:59.530Z,8.99
2023-02-23T18:26:27.069Z,9.08
2023-02-23T18:28:56.290Z,9.00
2023-02-23T18:31:30.614Z,9.32
2023-02-23T18:34:00.432Z,9.29
2023-02-23T18:36:31.291Z,9.31
2023-02-23T18:39:01.262Z,9.78
2023-02-23T18:41:32.859Z,10.17
2023-02-23T18:44:07.986Z,10.37
2023-02-23T18:46:36.327Z,10.66
2023-02-23T18:49:09.369Z,10.35
2023-02-23T18:51:36.443Z,10.66
2023-02-23T18:54:05.494Z,10.16
2023-02-23T18:56:32.387Z,9.77
2023-02-23T18:59:03.726Z,9.88
2023-02-23T19:01:33.479Z,9.57
2023-02-23T19:04:01.789Z,9.43
2023-02-23T19:06:30.648Z,9.30
2023-02-23T19:08:59.466Z,9.11
2023-02-23T19:11:29.231Z,9.11
2023-02-23T19:13:58.297Z,9.00
2023-02-23T19:16:27.977Z,8.96
2023-02-23T19:18:54.767Z,8.82
2023-02-23T19:21:22.855Z,8.79
2023-02-23T19:23:54.394Z,8.88
2023-02-23T19:26:21.398Z,8.78
2023-02-23T19:28:48.731Z,8.40
2023-02-23T19:31:21.308Z,8.77
2023-02-23T19:33:52.543Z,8.61
2023-02-23T19:36:23.526Z,8.82
2023-02-23T19:38:50.252Z,8.74
2023-02-23T19:41:20.391Z,8.57
2023-02-23T19:43:47.851Z,8.64
2023-02-23T19:46:17.182Z,8.77
2023-02-23T19:48:48.887Z,8.63
2023-02-23T19:51:15.601Z,8.63
2023-02-23T19:53:42.129Z,8.36
2023-02-23T19:56:13.425Z,8.29
2023-02-23T19:58:44.812Z,8.33
2023-02-23T20:01:16.798Z,8.32
2023-02-23T20:03:44.894Z,8.21
2023-02-23T20:06:13.520Z,7.77
2023-02-23T20:08:44.817Z,8.21
2023-02-23T20:11:11.909Z,8.02
2023-02-23T20:13:41.613Z,7.81
2023-02-23T20:16:10.836Z,7.92
2023-02-23T20:18:39.877Z,7.99
2023-02-23T20:21:18.284Z,7.95
2023-02-23T20:23:47.898Z,7.97
2023-02-23T20:26:20.771Z,7.89
2023-02-23T20:28:47.682Z,7.84
2023-02-23T20:31:19.616Z,7.93
2023-02-23T20:33:50.256Z,7.98
2023-02-23T20:36:20.530Z,7.86
2023-02-23T20:38:47.333Z,7.65
2023-02-23T20:41:14.117Z,8.10
2023-02-23T20:43:41.235Z,8.06
2023-02-23T20:46:07.827Z,8.02
2023-02-23T20:48:38.075Z,7.84
2023-02-23T20:51:08.679Z,7.78
2023-02-23T20:53:35.365Z,7.82
2023-02-23T20:56:06.291Z,7.76
2023-02-23T20:58:33.041Z,7.54
2023-02-23T21:01:05.779Z,7.75
2023-02-23T21:03:33.986Z,7.19
2023-02-23T21:06:00.932Z,7.62
2023-02-23T21:08:28.799Z,7.55
2023-02-23T21:10:55.961Z,7.58
2023-02-23T21:13:23.170Z,7.58
2023-02-23T21:16:00.991Z,7.60
2023-02-23T21:18:28.662Z,7.17
2023-02-23T21:20:58.923Z,7.59
2023-02-23T21:23:25.732Z,7.73
2023-02-23T21:25:54.175Z,7.63
2023-02-23T21:28:21.475Z,7.77
2023-02-23T21:30:48.221Z,7.17
2023-02-23T21:33:15.181Z,7.53
2023-02-23T21:35:41.965Z,7.49
2023-02-23T21:38:10.441Z,7.62
2023-02-23T21:40:42.078Z,7.68
2023-02-23T21:43:09.168Z,7.75
2023-02-23T21:45:39.885Z,7.86
2023-02-23T21:48:06.756Z,7.81
2023-02-23T21:50:35.534Z,7.67
2023-02-23T21:53:02.366Z,7.91
2023-02-23T21:55:29.155Z,7.85
2023-02-23T21:57:58.495Z,7.93
2023-02-23T22:00:28.259Z,7.81
2023-02-23T22:02:54.902Z,7.80
2023-02-23T22:05:22.793Z,7.52
2023-02-23T22:07:52.422Z,7.28
2023-02-23T22:10:21.977Z,7.86
2023-02-23T22:12:50.525Z,7.92
2023-02-23T22:15:18.164Z,7.74
2023-02-23T22:17:44.965Z,7.74
2023-02-23T22:20:12.174Z,7.58
2023-02-23T22:22:38.932Z,7.57
2023-02-23T22:25:07.343Z,7.77
2023-02-23T22:27:33.916Z,7.62
2023-02-23T22:30:03.091Z,7.70
2023-02-23T22:32:33.464Z,7.74
2023-02-23T22:35:01.434Z,7.85
2023-02-23T22:37:30.135Z,7.90
2023-02-23T22:39:57.975Z,7.77
2023-02-23T22:42:24.829Z,7.41
2023-02-23T22:44:51.661Z,7.38
2023-02-23T22:47:20.917Z,7.49
2023-02-23T22:49:48.047Z,7.56
2023-02-23T22:52:14.858Z,7.56
2023-02-23T22:54:43.964Z,7.62
2023-02-23T22:57:10.606Z,7.22
2023-02-23T22:59:37.717Z,7.29
2023-02-23T23:02:04.639Z,7.22
2023-02-23T23:04:34.671Z,7.01
2023-02-23T23:07:01.483Z,6.75
2023-02-23T23:09:29.088Z,6.69
2023-02-23T23:11:56.728Z,6.33
2023-02-23T23:14:23.780Z,6.41
2023-02-23T23:16:50.758Z,6.58
2023-02-23T23:19:24.361Z,6.60
2023-02-23T23:21:55.263Z,6.63
2023-02-23T23:24:23.833Z,6.21
2023-02-23T23:26:55.890Z,6.71
2023-02-23T23:29:29.430Z,6.55
2023-02-23T23:31:57.411Z,6.40
2023-02-23T23:34:25.282Z,6.65
2023-02-23T23:36:53.336Z,6.80
2023-02-23T23:39:22.982Z,6.91
2023-02-23T23:41:51.567Z,6.58
2023-02-23T23:44:21.374Z,6.90
2023-02-23T23:46:51.033Z,7.07
2023-02-23T23:49:19.878Z,7.00
2023-02-23T23:51:50.288Z,6.93
2023-02-23T23:54:21.504Z,7.00
2023-02-23T23:56:51.999Z,6.64
2023-02-23T23:59:22.170Z,6.76
